createdAt,value
2018-08-18T00:01:18.170Z,96.10
2018-08-18T00:03:45.632Z,95.90
2018-08-18T00:06:13.061Z,95.70
2018-08-18T00:08:40.526Z,96.40
2018-08-18T00:11:07.977Z,97.10
2018-08-18T00:13:45.350Z,97.20
2018-08-18T00:16:12.792Z,97.50
2018-08-18T00:18:40.242Z,97.60
2018-08-18T00:21:07.689Z,97.90
2018-08-18T00:23:35.131Z,97.90
2018-08-18T00:26:02.577Z,98.00
2018-08-18T00:28:30.033Z,98.00
2018-08-18T00:30:57.477Z,98.30
2018-08-18T00:33:25.026Z,98.60
2018-08-18T00:35:52.490Z,98.80
2018-08-18T00:38:20.486Z,98.50
2018-08-18T00:40:48.146Z,98.40
2018-08-18T00:43:16.031Z,98.50
2018-08-18T00:45:43.494Z,98.60
2018-08-18T00:48:11.106Z,99.20
2018-08-18T00:50:40.710Z,99.10
2018-08-18T00:53:10.310Z,99.20
2018-08-18T00:55:38.060Z,99.20
2018-08-18T00:58:06.322Z,99.30
2018-08-18T01:00:34.120Z,99.60
2018-08-18T01:03:01.638Z,99.90
2018-08-18T01:05:29.277Z,99.80
2018-08-18T01:07:56.705Z,99.90
2018-08-18T01:10:24.261Z,99.90
2018-08-18T01:12:51.773Z,99.90
2018-08-18T01:15:23.785Z,99.90
2018-08-18T01:17:51.239Z,99.90
2018-08-18T01:20:18.780Z,99.90
2018-08-18T01:23:02.089Z,99.90
2018-08-18T01:25:30.168Z,99.90
2018-08-18T01:27:57.969Z,99.90
2018-08-18T01:30:25.385Z,99.90
2018-08-18T01:32:52.810Z,99.90
2018-08-18T01:35:20.232Z,99.90
2018-08-18T01:37:47.689Z,99.90
2018-08-18T01:40:15.229Z,99.90
2018-08-18T01:42:42.781Z,99.90
2018-08-18T01:45:11.410Z,99.90
2018-08-18T01:47:38.837Z,99.90
2018-08-18T01:50:12.061Z,99.90
2018-08-18T01:52:39.485Z,99.90
2018-08-18T01:55:07.175Z,99.90
2018-08-18T01:57:34.620Z,99.90
2018-08-18T02:00:06.400Z,99.90
2018-08-18T02:02:33.926Z,99.90
2018-08-18T02:05:08.193Z,99.90
2018-08-18T02:07:35.640Z,99.90
2018-08-18T02:10:04.221Z,99.90
2018-08-18T02:12:31.645Z,99.90
2018-08-18T02:14:59.685Z,99.90
2018-08-18T02:17:29.690Z,99.90
2018-08-18T02:19:57.393Z,99.90
2018-08-18T02:22:25.531Z,99.90
2018-08-18T02:24:52.960Z,99.90
2018-08-18T02:27:20.377Z,99.90
2018-08-18T02:29:53.585Z,99.90
2018-08-18T02:32:26.779Z,99.90
2018-08-18T02:34:54.493Z,99.90
2018-08-18T02:37:21.967Z,99.90
2018-08-18T02:39:49.546Z,99.90
2018-08-18T02:42:16.989Z,99.90
2018-08-18T02:44:44.446Z,99.90
2018-08-18T02:47:12.006Z,99.90
2018-08-18T02:49:44.810Z,99.90
2018-08-18T02:52:18.573Z,99.90
2018-08-18T02:54:46.024Z,99.90
2018-08-18T02:57:13.468Z,99.90
2018-08-18T02:59:40.911Z,99.90
2018-08-18T03:02:08.394Z,99.90
2018-08-18T03:04:48.301Z,99.90
2018-08-18T03:07:15.733Z,99.90
2018-08-18T03:09:43.151Z,99.90
2018-08-18T03:12:10.578Z,99.90
2018-08-18T03:14:38.945Z,99.90
2018-08-18T03:17:06.817Z,99.90
2018-08-18T03:19:34.365Z,99.90
2018-08-18T03:22:01.805Z,99.90
2018-08-18T03:24:29.233Z,99.90
2018-08-18T03:26:57.607Z,99.90
2018-08-18T03:29:26.131Z,99.90
2018-08-18T03:31:53.850Z,99.90
2018-08-18T03:34:21.523Z,99.90
2018-08-18T03:36:50.201Z,99.90
2018-08-18T03:39:23.497Z,99.90
2018-08-18T03:41:51.873Z,99.90
2018-08-18T03:44:19.341Z,99.90
2018-08-18T03:46:46.816Z,99.90
2018-08-18T03:49:14.231Z,99.90
2018-08-18T03:51:46.756Z,99.90
2018-08-18T03:54:14.232Z,99.90
2018-08-18T03:56:41.931Z,99.90
2018-08-18T03:59:09.366Z,99.90
2018-08-18T04:01:54.963Z,99.90
2018-08-18T04:04:23.529Z,99.90
2018-08-18T04:06:52.160Z,99.90
2018-08-18T04:09:23.832Z,99.90
2018-08-18T04:11:51.681Z,99.90
2018-08-18T04:14:19.602Z,99.90
2018-08-18T04:16:48.338Z,99.90
2018-08-18T04:19:16.430Z,99.90
2018-08-18T04:21:44.069Z,99.90
2018-08-18T04:24:11.523Z,99.90
2018-08-18T04:26:38.958Z,99.90
2018-08-18T04:29:06.389Z,99.90
2018-08-18T04:31:34.817Z,99.90
2018-08-18T04:34:03.270Z,99.90
2018-08-18T04:36:31.066Z,99.90
2018-08-18T04:38:58.721Z,99.90
2018-08-18T04:41:26.245Z,99.90
2018-08-18T04:43:53.890Z,99.90
2018-08-18T04:46:21.293Z,99.90
2018-08-18T04:48:48.718Z,99.90
2018-08-18T04:51:16.260Z,99.90
2018-08-18T04:53:43.878Z,99.90
2018-08-18T04:56:11.355Z,99.90
2018-08-18T04:58:38.954Z,99.90
2018-08-18T05:01:06.425Z,99.90
2018-08-18T05:03:33.908Z,99.90
2018-08-18T05:06:01.310Z,99.90
2018-08-18T05:08:28.730Z,99.90
2018-08-18T05:10:56.175Z,99.90
2018-08-18T05:13:23.629Z,99.90
2018-08-18T05:15:51.138Z,99.90
2018-08-18T05:18:18.615Z,99.90
2018-08-18T05:20:46.710Z,99.90
2018-08-18T05:23:19.710Z,99.90
2018-08-18T05:25:47.226Z,99.90
2018-08-18T05:28:14.669Z,99.90
2018-08-18T05:30:42.490Z,99.90
2018-08-18T05:33:10.157Z,99.90
2018-08-18T05:35:37.585Z,99.90
2018-08-18T05:38:05.033Z,99.90
2018-08-18T05:40:33.321Z,99.90
2018-08-18T05:43:00.953Z,99.90
2018-08-18T05:45:31.698Z,99.90
2018-08-18T05:47:59.364Z,99.90
2018-08-18T05:50:27.350Z,99.90
2018-08-18T05:52:58.584Z,99.90
2018-08-18T05:55:26.225Z,99.90
2018-08-18T05:57:53.951Z,99.90
2018-08-18T06:00:23.460Z,99.90
2018-08-18T06:02:56.377Z,99.90
2018-08-18T06:05:27.530Z,99.90
2018-08-18T06:07:54.970Z,99.90
2018-08-18T06:10:22.402Z,99.90
2018-08-18T06:12:49.925Z,99.90
2018-08-18T06:15:17.350Z,99.90
2018-08-18T06:17:44.813Z,99.90
2018-08-18T06:20:12.390Z,99.90
2018-08-18T06:22:39.833Z,99.90
2018-08-18T06:25:07.433Z,99.90
2018-08-18T06:27:34.938Z,99.90
2018-08-18T06:30:02.387Z,99.90
2018-08-18T06:32:29.912Z,99.90
2018-08-18T06:34:57.450Z,99.90
2018-08-18T06:37:24.773Z,99.90
2018-08-18T06:39:54.549Z,99.90
2018-08-18T06:42:27.765Z,99.80
2018-08-18T06:44:55.344Z,99.90
2018-08-18T06:47:22.861Z,99.90
2018-08-18T06:49:50.342Z,99.20
2018-08-18T06:52:20.690Z,98.30
2018-08-18T06:54:49.313Z,98.10
2018-08-18T06:57:21.385Z,96.30
2018-08-18T06:59:49.104Z,95.10
2018-08-18T07:02:19.372Z,95.90
2018-08-18T07:04:46.789Z,93.70
2018-08-18T07:07:14.346Z,94.10
2018-08-18T07:09:41.781Z,94.00
2018-08-18T07:12:09.350Z,93.10
2018-08-18T07:14:36.788Z,92.60
2018-08-18T07:17:04.385Z,91.50
2018-08-18T07:19:31.967Z,92.60
2018-08-18T07:21:59.485Z,90.10
2018-08-18T07:24:26.893Z,91.20
2018-08-18T07:26:54.495Z,92.00
2018-08-18T07:29:21.949Z,86.30
2018-08-18T07:31:49.510Z,87.90
2018-08-18T07:34:16.945Z,89.50
2018-08-18T07:36:44.395Z,86.00
2018-08-18T07:39:11.964Z,88.60
2018-08-18T07:41:39.281Z,83.50
2018-08-18T07:44:06.917Z,84.70
2018-08-18T07:46:34.562Z,84.70
2018-08-18T07:49:02.020Z,84.30
2018-08-18T07:51:29.425Z,80.80
2018-08-18T07:53:56.949Z,79.00
2018-08-18T07:56:24.614Z,78.90
2018-08-18T07:58:52.061Z,81.80
2018-08-18T08:01:19.705Z,78.60
2018-08-18T08:03:50.464Z,76.80
2018-08-18T08:06:17.861Z,73.70
2018-08-18T08:08:48.497Z,70.70
2018-08-18T08:11:15.913Z,71.60
2018-08-18T08:13:43.335Z,69.80
2018-08-18T08:16:10.753Z,69.30
2018-08-18T08:18:38.368Z,68.30
2018-08-18T08:21:05.862Z,66.10
2018-08-18T08:23:33.298Z,66.00
2018-08-18T08:26:00.961Z,66.80
2018-08-18T08:28:28.665Z,66.20
2018-08-18T08:30:56.270Z,67.70
2018-08-18T08:33:31.770Z,63.80
2018-08-18T08:36:02.808Z,67.20
2018-08-18T08:38:36.202Z,62.90
2018-08-18T08:41:04.849Z,62.30
2018-08-18T08:43:34.658Z,60.60
2018-08-18T08:46:02.244Z,63.10
2018-08-18T08:48:30.879Z,61.50
2018-08-18T08:50:58.289Z,68.60
2018-08-18T08:53:25.796Z,62.10
2018-08-18T08:55:53.273Z,60.50
2018-08-18T08:58:20.729Z,62.70
2018-08-18T09:00:48.179Z,63.60
2018-08-18T09:03:15.613Z,63.80
2018-08-18T09:05:43.170Z,61.60
2018-08-18T09:08:10.755Z,61.20
2018-08-18T09:10:38.178Z,61.10
2018-08-18T09:13:06.260Z,58.70
2018-08-18T09:15:33.681Z,57.90
2018-08-18T09:18:01.104Z,58.90
2018-08-18T09:20:31.897Z,56.40
2018-08-18T09:23:00.577Z,56.70
2018-08-18T09:25:29.097Z,58.50
2018-08-18T09:27:57.549Z,57.90
2018-08-18T09:30:26.647Z,55.50
2018-08-18T09:32:54.103Z,55.90
2018-08-18T09:35:21.609Z,54.40
2018-08-18T09:37:58.190Z,54.80
2018-08-18T09:40:26.057Z,55.40
2018-08-18T09:42:53.521Z,55.80
2018-08-18T09:45:21.284Z,55.30
2018-08-18T09:47:48.641Z,56.70
2018-08-18T09:50:16.110Z,62.50
2018-08-18T09:52:43.588Z,57.20
2018-08-18T09:55:11.270Z,55.00
2018-08-18T09:57:38.829Z,55.90
2018-08-18T10:00:06.588Z,59.70
2018-08-18T10:02:34.269Z,53.10
2018-08-18T10:05:01.714Z,54.20
2018-08-18T10:07:29.143Z,55.30
2018-08-18T10:09:56.744Z,55.40
2018-08-18T10:12:24.329Z,56.60
2018-08-18T10:14:51.807Z,53.70
2018-08-18T10:17:19.249Z,57.50
2018-08-18T10:19:46.697Z,54.60
2018-08-18T10:22:14.133Z,54.80
2018-08-18T10:24:42.251Z,56.70
2018-08-18T10:27:09.854Z,56.00
2018-08-18T10:29:37.230Z,52.30
2018-08-18T10:32:04.686Z,55.30
2018-08-18T10:34:33.225Z,55.00
2018-08-18T10:37:04.056Z,53.10
2018-08-18T10:39:31.644Z,56.40
2018-08-18T10:42:04.849Z,52.60
2018-08-18T10:44:32.533Z,56.30
2018-08-18T10:47:13.561Z,53.30
2018-08-18T10:49:47.950Z,55.70
2018-08-18T10:52:21.026Z,53.80
2018-08-18T10:54:48.623Z,53.20
2018-08-18T10:57:21.741Z,51.90
2018-08-18T10:59:49.154Z,52.90
2018-08-18T11:02:26.166Z,54.60
2018-08-18T11:04:53.880Z,52.40
2018-08-18T11:07:21.356Z,50.50
2018-08-18T11:09:48.911Z,51.90
2018-08-18T11:12:16.469Z,51.90
2018-08-18T11:14:48.413Z,51.80
2018-08-18T11:17:15.880Z,52.70
2018-08-18T11:19:43.294Z,51.90
2018-08-18T11:22:16.517Z,51.30
2018-08-18T11:24:43.950Z,50.50
2018-08-18T11:27:11.434Z,50.30
2018-08-18T11:29:38.877Z,51.70
2018-08-18T11:32:06.489Z,49.10
2018-08-18T11:34:33.922Z,51.30
2018-08-18T11:37:05.455Z,50.80
2018-08-18T11:39:33.006Z,51.70
2018-08-18T11:42:00.566Z,52.60
2018-08-18T11:44:28.209Z,50.60
2018-08-18T11:46:55.681Z,50.20
2018-08-18T11:49:23.241Z,49.30
2018-08-18T11:51:50.649Z,49.10
2018-08-18T11:54:18.073Z,51.20
2018-08-18T11:56:51.714Z,50.90
2018-08-18T11:59:19.164Z,49.90
2018-08-18T12:01:48.819Z,49.30
2018-08-18T12:04:16.309Z,48.70
2018-08-18T12:06:49.306Z,50.20
2018-08-18T12:09:16.829Z,49.40
2018-08-18T12:11:44.245Z,48.90
2018-08-18T12:14:11.673Z,48.30
2018-08-18T12:16:39.093Z,48.70
2018-08-18T12:19:06.529Z,50.60
2018-08-18T12:21:39.214Z,50.20
2018-08-18T12:24:06.649Z,51.80
2018-08-18T12:26:34.233Z,49.20
2018-08-18T12:29:01.706Z,48.50
2018-08-18T12:31:29.202Z,49.80
2018-08-18T12:33:56.895Z,47.10
2018-08-18T12:36:24.708Z,48.70
2018-08-18T12:38:53.356Z,48.30
2018-08-18T12:41:20.833Z,49.10
2018-08-18T12:43:49.690Z,50.50
2018-08-18T12:46:18.402Z,49.80
2018-08-18T12:48:47.061Z,51.10
2018-08-18T12:51:15.943Z,50.50
2018-08-18T12:53:49.561Z,51.40
2018-08-18T12:56:18.238Z,50.00
2018-08-18T12:58:45.780Z,48.20
2018-08-18T13:01:14.269Z,50.50
2018-08-18T13:03:41.701Z,49.30
2018-08-18T13:06:09.803Z,50.30
2018-08-18T13:08:37.234Z,51.60
2018-08-18T13:11:04.679Z,48.50
2018-08-18T13:13:32.130Z,50.80
2018-08-18T13:15:59.585Z,50.90
2018-08-18T13:18:27.111Z,49.60
2018-08-18T13:20:55.090Z,50.60
2018-08-18T13:23:23.723Z,52.80
2018-08-18T13:25:51.518Z,52.30
2018-08-18T13:28:18.945Z,49.20
2018-08-18T13:30:46.496Z,53.70
2018-08-18T13:33:14.135Z,52.60
2018-08-18T13:35:41.460Z,50.80
2018-08-18T13:38:18.969Z,54.40
2018-08-18T13:40:46.566Z,48.90
2018-08-18T13:43:14.025Z,51.50
2018-08-18T13:45:42.458Z,50.50
2018-08-18T13:48:10.381Z,49.40
2018-08-18T13:50:37.904Z,51.40
2018-08-18T13:53:05.649Z,49.60
2018-08-18T13:55:40.289Z,51.80
2018-08-18T13:58:08.379Z,50.00
2018-08-18T14:00:35.932Z,48.60
2018-08-18T14:03:14.265Z,51.10
2018-08-18T14:05:41.697Z,48.40
2018-08-18T14:08:10.160Z,49.40
2018-08-18T14:10:37.646Z,50.20
2018-08-18T14:13:05.077Z,49.10
2018-08-18T14:15:32.502Z,50.40
2018-08-18T14:18:17.555Z,52.40
2018-08-18T14:20:55.073Z,48.90
2018-08-18T14:23:22.577Z,51.40
2018-08-18T14:25:50.016Z,52.30
2018-08-18T14:28:17.622Z,49.90
2018-08-18T14:30:45.030Z,50.50
2018-08-18T14:33:12.519Z,52.10
2018-08-18T14:35:40.090Z,52.30
2018-08-18T14:38:07.505Z,52.90
2018-08-18T14:40:35.115Z,51.70
2018-08-18T14:43:02.682Z,50.70
2018-08-18T14:45:30.969Z,53.20
2018-08-18T14:47:58.509Z,53.70
2018-08-18T14:50:27.615Z,52.00
2018-08-18T14:52:55.140Z,50.60
2018-08-18T14:55:22.717Z,50.30
2018-08-18T14:57:53.171Z,51.40
2018-08-18T15:00:23.266Z,50.30
2018-08-18T15:02:53.835Z,51.80
2018-08-18T15:05:21.613Z,51.90
2018-08-18T15:07:50.084Z,50.70
2018-08-18T15:10:27.591Z,47.70
2018-08-18T15:12:55.190Z,52.10
2018-08-18T15:15:22.781Z,49.40
2018-08-18T15:17:50.542Z,58.20
2018-08-18T15:20:18.613Z,49.50
2018-08-18T15:22:46.134Z,51.40
2018-08-18T15:25:13.762Z,50.70
2018-08-18T15:27:41.251Z,53.50
2018-08-18T15:30:08.705Z,48.80
2018-08-18T15:32:36.258Z,49.90
2018-08-18T15:35:03.705Z,47.30
2018-08-18T15:37:31.291Z,50.10
2018-08-18T15:39:58.937Z,50.80
2018-08-18T15:42:26.392Z,49.60
2018-08-18T15:44:57.052Z,49.10
2018-08-18T15:47:25.623Z,49.00
2018-08-18T15:49:53.065Z,50.50
2018-08-18T15:52:21.501Z,50.00
2018-08-18T15:54:48.929Z,48.30
2018-08-18T15:57:16.371Z,48.10
2018-08-18T15:59:44.012Z,55.90
2018-08-18T16:02:11.781Z,51.00
2018-08-18T16:04:39.498Z,49.70
2018-08-18T16:07:06.989Z,54.70
2018-08-18T16:09:34.445Z,53.50
2018-08-18T16:12:02.045Z,52.10
2018-08-18T16:14:29.470Z,52.50
2018-08-18T16:16:58.789Z,50.70
2018-08-18T16:19:26.405Z,53.10
2018-08-18T16:21:53.830Z,53.70
2018-08-18T16:24:29.164Z,54.00
2018-08-18T16:26:56.609Z,53.30
2018-08-18T16:29:24.171Z,53.30
2018-08-18T16:31:51.841Z,52.70
2018-08-18T16:34:19.286Z,52.50
2018-08-18T16:36:46.829Z,53.50
2018-08-18T16:39:14.314Z,51.40
2018-08-18T16:41:41.790Z,51.70
2018-08-18T16:44:09.305Z,52.30
2018-08-18T16:46:36.799Z,53.20
2018-08-18T16:49:04.421Z,53.30
2018-08-18T16:51:31.943Z,52.10
2018-08-18T16:54:09.505Z,49.20
2018-08-18T16:56:36.930Z,53.10
2018-08-18T16:59:04.503Z,51.20
2018-08-18T17:01:31.955Z,51.90
2018-08-18T17:03:59.398Z,51.10
2018-08-18T17:06:27.077Z,51.10
2018-08-18T17:08:54.646Z,50.10
2018-08-18T17:11:22.301Z,49.50
2018-08-18T17:13:51.168Z,49.40
2018-08-18T17:16:20.601Z,50.70
2018-08-18T17:18:48.178Z,51.80
2018-08-18T17:21:15.696Z,50.80
2018-08-18T17:23:43.509Z,50.70
2018-08-18T17:26:10.958Z,50.20
2018-08-18T17:28:38.417Z,50.50
2018-08-18T17:31:06.317Z,50.40
2018-08-18T17:33:34.070Z,51.00
2018-08-18T17:36:01.523Z,50.50
2018-08-18T17:38:28.957Z,50.90
2018-08-18T17:40:56.414Z,51.10
2018-08-18T17:43:23.853Z,52.20
2018-08-18T17:45:56.511Z,53.70
2018-08-18T17:48:25.155Z,54.10
2018-08-18T17:50:53.137Z,52.00
2018-08-18T17:53:20.908Z,50.80
2018-08-18T17:55:52.866Z,52.30
2018-08-18T17:58:20.466Z,50.40
2018-08-18T18:00:48.029Z,51.60
2018-08-18T18:03:15.549Z,55.00
2018-08-18T18:05:43.485Z,51.20
2018-08-18T18:08:11.123Z,51.20
2018-08-18T18:10:39.042Z,51.40
2018-08-18T18:13:13.806Z,52.60
2018-08-18T18:15:41.705Z,54.90
2018-08-18T18:18:10.789Z,54.00
2018-08-18T18:20:38.222Z,53.00
2018-08-18T18:23:07.469Z,52.90
2018-08-18T18:25:35.108Z,51.80
2018-08-18T18:28:02.552Z,52.80
2018-08-18T18:30:31.177Z,52.50
2018-08-18T18:32:58.629Z,51.70
2018-08-18T18:35:26.509Z,51.90
2018-08-18T18:37:56.147Z,52.20
2018-08-18T18:40:23.642Z,52.70
2018-08-18T18:42:51.137Z,54.00
2018-08-18T18:45:18.557Z,54.60
2018-08-18T18:47:46.117Z,55.50
2018-08-18T18:50:14.018Z,55.10
2018-08-18T18:52:41.465Z,54.20
2018-08-18T18:55:08.906Z,54.80
2018-08-18T18:57:36.385Z,55.90
2018-08-18T19:00:06.595Z,55.90
2018-08-18T19:02:42.774Z,55.60
2018-08-18T19:05:19.718Z,55.60
2018-08-18T19:07:55.125Z,55.30
2018-08-18T19:10:22.850Z,54.70
2018-08-18T19:12:50.509Z,55.20
2018-08-18T19:15:18.018Z,56.40
2018-08-18T19:17:45.481Z,56.60
2018-08-18T19:20:17.310Z,58.80
2018-08-18T19:22:44.905Z,60.50
2018-08-18T19:25:12.462Z,58.50
2018-08-18T19:27:39.906Z,58.50
2018-08-18T19:30:07.342Z,58.80
2018-08-18T19:32:34.994Z,58.70
2018-08-18T19:35:02.473Z,59.40
2018-08-18T19:37:31.114Z,60.10
2018-08-18T19:39:58.521Z,58.70
2018-08-18T19:42:26.005Z,59.50
2018-08-18T19:44:53.450Z,60.80
2018-08-18T19:47:35.996Z,61.70
2018-08-18T19:50:03.969Z,61.70
2018-08-18T19:52:31.468Z,61.90
2018-08-18T19:54:58.902Z,61.60
2018-08-18T19:57:31.973Z,62.70
2018-08-18T20:00:34.698Z,62.50
2018-08-18T20:03:06.954Z,62.00
2018-08-18T20:05:34.586Z,61.30
2018-08-18T20:08:02.141Z,62.30
2018-08-18T20:10:29.658Z,61.20
2018-08-18T20:12:57.169Z,61.20
2018-08-18T20:15:24.601Z,61.60
2018-08-18T20:17:52.173Z,63.10
2018-08-18T20:20:20.579Z,61.50
2018-08-18T20:22:48.045Z,61.20
2018-08-18T20:25:16.466Z,60.30
2018-08-18T20:27:44.161Z,60.80
2018-08-18T20:30:12.156Z,61.00
2018-08-18T20:32:39.695Z,63.80
2018-08-18T20:35:07.382Z,63.70
2018-08-18T20:37:34.942Z,64.40
2018-08-18T20:40:02.494Z,66.10
2018-08-18T20:42:35.743Z,65.60
2018-08-18T20:45:03.222Z,66.50
2018-08-18T20:47:31.758Z,65.50
2018-08-18T20:49:59.570Z,65.20
2018-08-18T20:52:28.643Z,65.60
2018-08-18T20:54:57.369Z,68.20
2018-08-18T20:57:24.988Z,68.90
2018-08-18T20:59:52.699Z,68.30
2018-08-18T21:02:21.225Z,69.40
2018-08-18T21:05:05.091Z,70.30
2018-08-18T21:07:34.577Z,71.90
2018-08-18T21:10:09.313Z,73.50
2018-08-18T21:12:41.999Z,72.70
2018-08-18T21:15:09.518Z,71.80
2018-08-18T21:17:37.001Z,71.70
2018-08-18T21:20:06.119Z,75.30
2018-08-18T21:22:33.574Z,73.80
2018-08-18T21:25:01.105Z,72.70
2018-08-18T21:27:29.531Z,73.70
2018-08-18T21:29:57.867Z,73.80
2018-08-18T21:32:26.659Z,72.60
2018-08-18T21:34:54.149Z,73.30
2018-08-18T21:37:22.050Z,73.10
2018-08-18T21:39:50.118Z,74.40
2018-08-18T21:42:17.564Z,74.60
2018-08-18T21:44:46.092Z,75.50
2018-08-18T21:47:13.552Z,75.80
2018-08-18T21:49:43.182Z,75.00
2018-08-18T21:52:10.729Z,73.90
2018-08-18T21:54:38.215Z,72.40
2018-08-18T21:57:05.650Z,73.10
2018-08-18T21:59:39.133Z,75.00
2018-08-18T22:02:06.634Z,75.20
2018-08-18T22:04:35.317Z,75.90
2018-08-18T22:07:02.773Z,76.80
2018-08-18T22:09:30.201Z,77.50
2018-08-18T22:11:57.670Z,78.40
2018-08-18T22:14:25.119Z,79.10
2018-08-18T22:16:58.769Z,79.60
2018-08-18T22:19:26.911Z,79.70
2018-08-18T22:22:04.037Z,80.30
2018-08-18T22:24:42.981Z,79.80
2018-08-18T22:27:14.026Z,80.10
2018-08-18T22:39:03.870Z,82.10
2018-08-18T22:41:49.003Z,81.80
2018-08-18T22:44:23.978Z,82.30
2018-08-18T22:46:54.271Z,82.20
2018-08-18T22:49:33.119Z,82.30
2018-08-18T22:52:02.627Z,83.60
2018-08-18T22:54:46.428Z,84.20
2018-08-18T22:57:20.573Z,84.20
2018-08-18T23:03:05.529Z,85.00
2018-08-18T23:05:48.237Z,85.50
2018-08-18T23:11:02.975Z,87.20
2018-08-18T23:16:37.736Z,86.10
2018-08-18T23:21:56.852Z,88.70
2018-08-18T23:37:18.497Z,90.20
2018-08-18T23:42:39.892Z,91.80
2018-08-18T23:45:16.841Z,91.70
2018-08-18T23:53:23.655Z,93.20
2018-08-18T23:56:03.363Z,94.10
